createdAt,value
2019-05-07T00:01:52.650Z,15.05
2019-05-07T00:04:22.605Z,14.95
2019-05-07T00:06:52.943Z,16.90
2019-05-07T00:09:23.477Z,15.08
2019-05-07T00:11:53.605Z,15.30
2019-05-07T00:14:23.753Z,15.05
2019-05-07T00:16:53.694Z,15.45
2019-05-07T00:19:23.624Z,15.65
2019-05-07T00:21:53.505Z,14.98
2019-05-07T00:24:23.312Z,16.42
2019-05-07T00:26:53.386Z,15.23
2019-05-07T00:29:23.297Z,14.35
2019-05-07T00:31:53.123Z,15.28
2019-05-07T00:34:25.320Z,16.55
2019-05-07T00:37:16.724Z,16.10
2019-05-07T00:39:56.734Z,16.05
2019-05-07T00:42:32.710Z,17.73
2019-05-07T00:45:23.755Z,19.55
2019-05-07T00:47:52.927Z,17.95
2019-05-07T00:50:27.831Z,15.90
2019-05-07T00:52:57.737Z,15.43
2019-05-07T00:55:27.506Z,15.53
2019-05-07T00:57:57.322Z,17.00
2019-05-07T01:00:27.196Z,17.02
2019-05-07T01:02:57.010Z,16.05
2019-05-07T01:05:26.770Z,16.60
2019-05-07T01:07:56.585Z,15.35
2019-05-07T01:10:26.350Z,16.35
2019-05-07T01:12:58.903Z,16.15
2019-05-07T01:17:57.793Z,14.35
2019-05-07T01:20:27.616Z,16.42
2019-05-07T01:22:57.392Z,15.70
2019-05-07T01:25:27.198Z,14.98
2019-05-07T01:27:56.975Z,15.55
2019-05-07T01:30:26.731Z,16.23
2019-05-07T01:33:02.787Z,15.55
2019-05-07T01:35:52.362Z,15.60
2019-05-07T01:38:22.983Z,15.80
2019-05-07T01:40:52.946Z,16.90
2019-05-07T01:43:22.813Z,16.37
2019-05-07T01:45:53.100Z,16.15
2019-05-07T01:48:23.127Z,16.32
2019-05-07T01:50:52.910Z,16.82
2019-05-07T01:53:22.904Z,17.25
2019-05-07T01:55:52.818Z,16.57
2019-05-07T01:58:22.606Z,16.87
2019-05-07T02:00:53.166Z,16.90
2019-05-07T02:03:52.811Z,16.10
2019-05-07T02:06:36.667Z,16.07
2019-05-07T02:09:22.519Z,16.48
2019-05-07T02:12:13.124Z,16.12
2019-05-07T02:14:42.714Z,14.90
2019-05-07T02:17:13.610Z,16.17
2019-05-07T02:19:43.643Z,16.93
2019-05-07T02:22:13.547Z,16.65
2019-05-07T02:24:43.542Z,15.40
2019-05-07T02:27:13.362Z,16.30
2019-05-07T02:29:43.176Z,15.93
2019-05-07T02:32:13.486Z,16.12
2019-05-07T02:34:44.466Z,17.23
2019-05-07T02:37:17.649Z,15.60
2019-05-07T02:39:53.974Z,17.05
2019-05-07T02:42:24.067Z,15.60
2019-05-07T02:45:15.966Z,16.12
2019-05-07T02:47:45.759Z,15.18
2019-05-07T02:50:22.745Z,16.17
2019-05-07T02:53:04.525Z,15.32
2019-05-07T02:55:38.527Z,14.87
2019-05-07T02:58:08.326Z,14.80
2019-05-07T03:00:38.126Z,16.45
2019-05-07T03:03:07.935Z,15.18
2019-05-07T03:05:37.724Z,15.48
2019-05-07T03:08:07.635Z,14.43
2019-05-07T03:10:37.381Z,14.85
2019-05-07T03:13:07.410Z,15.48
2019-05-07T03:15:37.135Z,13.78
2019-05-07T03:18:07.045Z,14.95
2019-05-07T03:20:57.962Z,14.25
2019-05-07T03:23:34.088Z,15.45
2019-05-07T03:26:14.279Z,15.18
2019-05-07T03:29:09.169Z,13.70
2019-05-07T03:32:09.847Z,13.85
2019-05-07T03:34:58.705Z,12.37
2019-05-07T03:37:35.201Z,12.90
2019-05-07T03:40:04.002Z,13.95
2019-05-07T03:45:23.086Z,13.13
2019-05-07T03:48:03.797Z,11.90
2019-05-07T03:50:33.931Z,12.60
2019-05-07T03:53:03.805Z,12.98
2019-05-07T03:55:33.961Z,12.25
2019-05-07T03:58:03.710Z,12.73
2019-05-07T04:00:33.577Z,12.10
2019-05-07T04:03:03.789Z,11.35
2019-05-07T04:05:34.386Z,11.88
2019-05-07T04:08:04.351Z,10.48
2019-05-07T04:10:34.180Z,11.35
2019-05-07T04:13:04.681Z,13.50
2019-05-07T04:15:34.669Z,10.58
2019-05-07T04:18:04.574Z,10.78
2019-05-07T04:20:34.358Z,11.03
2019-05-07T04:23:04.485Z,10.43
2019-05-07T04:25:43.305Z,10.93
2019-05-07T04:28:33.373Z,10.70
2019-05-07T04:31:03.188Z,11.08
2019-05-07T04:33:39.174Z,11.67
2019-05-07T04:36:22.763Z,10.95
2019-05-07T04:38:53.245Z,10.43
2019-05-07T04:43:54.041Z,10.20
2019-05-07T04:48:53.724Z,10.55
2019-05-07T04:51:33.397Z,11.83
2019-05-07T04:54:03.521Z,12.45
2019-05-07T04:59:03.845Z,11.73
2019-05-07T05:01:36.951Z,12.00
2019-05-07T05:04:24.228Z,11.43
2019-05-07T05:09:07.459Z,12.13
2019-05-07T05:11:37.213Z,12.90
2019-05-07T05:14:07.952Z,13.38
2019-05-07T05:16:38.052Z,13.20
2019-05-07T05:19:07.875Z,14.38
2019-05-07T05:22:01.473Z,14.13
2019-05-07T05:24:37.969Z,13.50
2019-05-07T05:27:07.759Z,13.93
2019-05-07T05:29:38.335Z,15.00
2019-05-07T05:32:08.217Z,13.88
2019-05-07T05:34:38.003Z,14.80
2019-05-07T05:37:07.787Z,14.47
2019-05-07T05:39:37.582Z,13.88
2019-05-07T05:42:16.417Z,14.33
2019-05-07T05:44:46.197Z,13.62
2019-05-07T05:47:16.024Z,13.45
2019-05-07T05:49:45.856Z,13.65
2019-05-07T05:52:34.553Z,12.50
2019-05-07T05:55:16.955Z,12.70
2019-05-07T05:58:05.638Z,12.95
2019-05-07T06:00:54.291Z,12.00
2019-05-07T06:03:52.011Z,13.15
2019-05-07T06:06:30.026Z,11.63
2019-05-07T06:09:18.741Z,12.85
2019-05-07T06:11:57.974Z,11.95
2019-05-07T06:14:42.437Z,11.97
2019-05-07T06:17:32.080Z,11.93
2019-05-07T06:20:26.955Z,12.68
2019-05-07T06:23:18.477Z,12.55
2019-05-07T06:25:48.537Z,11.55
2019-05-07T06:28:18.296Z,11.30
2019-05-07T06:30:48.115Z,11.43
2019-05-07T06:33:17.888Z,9.58
2019-05-07T06:35:47.707Z,10.18
2019-05-07T06:38:17.477Z,9.60
2019-05-07T06:41:12.294Z,8.58
2019-05-07T06:43:52.156Z,9.03
2019-05-07T06:46:23.222Z,8.80
2019-05-07T06:48:53.234Z,6.58
2019-05-07T06:51:23.074Z,6.90
2019-05-07T06:53:52.826Z,7.90
2019-05-07T06:56:23.092Z,8.43
2019-05-07T06:59:24.244Z,9.50
2019-05-07T07:02:13.013Z,7.50
2019-05-07T07:04:46.783Z,5.97
2019-05-07T07:07:37.485Z,5.92
2019-05-07T07:10:32.393Z,6.15
2019-05-07T07:13:02.450Z,5.92
2019-05-07T07:15:32.324Z,5.75
2019-05-07T07:18:03.173Z,5.75
2019-05-07T07:20:33.176Z,6.22
2019-05-07T07:23:02.967Z,5.75
2019-05-07T07:25:32.771Z,4.90
2019-05-07T07:28:02.846Z,5.62
2019-05-07T07:30:45.853Z,5.10
2019-05-07T07:33:16.436Z,4.90
2019-05-07T07:35:46.310Z,5.60
2019-05-07T07:38:35.508Z,5.87
2019-05-07T07:41:35.678Z,5.10
2019-05-07T07:44:05.800Z,3.90
2019-05-07T07:46:35.598Z,4.45
2019-05-07T07:49:10.925Z,2.80
2019-05-07T07:51:41.762Z,3.00
2019-05-07T07:56:49.949Z,2.80
2019-05-07T07:59:43.147Z,2.20
2019-05-07T08:02:22.898Z,2.25
2019-05-07T08:04:52.814Z,2.35
2019-05-07T08:07:22.951Z,2.70
2019-05-07T08:09:52.900Z,2.65
2019-05-07T08:12:22.640Z,2.65
2019-05-07T08:14:52.603Z,2.55
2019-05-07T08:17:22.626Z,2.52
2019-05-07T08:19:52.547Z,2.35
2019-05-07T08:22:22.795Z,2.40
2019-05-07T08:24:52.680Z,2.80
2019-05-07T08:27:22.452Z,2.33
2019-05-07T08:29:52.590Z,2.58
2019-05-07T08:32:44.384Z,2.17
2019-05-07T08:35:25.878Z,2.05
2019-05-07T08:40:24.278Z,2.37
2019-05-07T08:42:54.671Z,2.35
2019-05-07T08:45:43.194Z,2.60
2019-05-07T08:48:21.715Z,2.60
2019-05-07T08:50:52.522Z,1.87
2019-05-07T08:53:22.588Z,1.70
2019-05-07T08:55:52.706Z,1.37
2019-05-07T08:58:22.595Z,1.57
2019-05-07T09:00:52.465Z,1.80
2019-05-07T09:03:39.699Z,1.20
2019-05-07T09:06:11.283Z,1.47
2019-05-07T09:08:43.507Z,1.67
2019-05-07T09:11:13.355Z,1.60
2019-05-07T09:13:43.435Z,1.82
2019-05-07T09:16:13.228Z,1.55
2019-05-07T09:18:43.005Z,1.35
2019-05-07T09:21:12.819Z,1.82
2019-05-07T09:23:42.672Z,2.42
2019-05-07T09:26:14.541Z,1.40
2019-05-07T09:29:12.373Z,1.72
2019-05-07T09:31:59.844Z,2.40
2019-05-07T09:34:32.686Z,2.12
2019-05-07T09:37:04.231Z,1.52
2019-05-07T09:42:02.649Z,2.20
2019-05-07T09:44:32.569Z,1.90
2019-05-07T09:47:02.713Z,2.58
2019-05-07T09:49:32.774Z,2.30
2019-05-07T09:52:05.659Z,2.00
2019-05-07T09:54:34.085Z,2.12
2019-05-07T09:57:03.895Z,2.33
2019-05-07T09:59:33.664Z,2.22
2019-05-07T10:02:03.715Z,2.67
2019-05-07T10:04:33.552Z,2.00
2019-05-07T10:07:03.569Z,2.55
2019-05-07T10:09:33.454Z,2.47
2019-05-07T10:12:22.337Z,2.27
2019-05-07T10:14:52.285Z,2.47
2019-05-07T10:17:28.837Z,2.70
2019-05-07T10:19:58.565Z,2.62
2019-05-07T10:22:28.498Z,2.90
2019-05-07T10:24:58.311Z,2.67
2019-05-07T10:27:28.188Z,2.75
2019-05-07T10:29:58.514Z,3.98
2019-05-07T10:32:28.334Z,2.90
2019-05-07T10:34:58.126Z,2.95
2019-05-07T10:37:27.960Z,3.15
2019-05-07T10:39:57.708Z,2.80
2019-05-07T10:42:27.627Z,2.98
2019-05-07T10:45:22.196Z,2.92
2019-05-07T10:48:04.467Z,2.55
2019-05-07T10:50:39.015Z,2.67
2019-05-07T10:53:06.161Z,2.40
2019-05-07T10:55:35.994Z,2.80
2019-05-07T10:58:05.895Z,3.50
2019-05-07T11:00:36.119Z,2.92
2019-05-07T11:03:06.116Z,2.67
2019-05-07T11:05:36.013Z,2.60
2019-05-07T11:08:05.914Z,3.05
2019-05-07T11:10:35.701Z,2.30
2019-05-07T11:13:05.439Z,2.70
2019-05-07T11:15:35.468Z,2.33
2019-05-07T11:18:13.379Z,2.10
2019-05-07T11:20:49.865Z,2.52
2019-05-07T11:23:14.730Z,2.87
2019-05-07T11:25:44.507Z,2.08
2019-05-07T11:28:14.252Z,2.30
2019-05-07T11:30:44.555Z,2.27
2019-05-07T11:33:14.319Z,2.17
2019-05-07T11:35:44.129Z,2.35
2019-05-07T11:38:20.793Z,2.80
2019-05-07T11:40:45.332Z,2.37
2019-05-07T11:43:34.103Z,2.40
2019-05-07T11:46:32.788Z,2.58
2019-05-07T11:49:08.883Z,2.20
2019-05-07T11:51:47.297Z,2.55
2019-05-07T11:54:17.032Z,2.45
2019-05-07T11:56:46.843Z,2.37
2019-05-07T11:59:16.673Z,2.58
2019-05-07T12:01:49.677Z,2.83
2019-05-07T12:04:19.512Z,2.35
2019-05-07T12:06:49.253Z,1.98
2019-05-07T12:09:19.039Z,2.37
2019-05-07T12:11:48.803Z,2.33
2019-05-07T12:14:28.893Z,3.25
2019-05-07T12:16:50.030Z,2.10
2019-05-07T12:19:19.843Z,2.35
2019-05-07T12:21:49.588Z,2.15
2019-05-07T12:24:19.421Z,2.60
2019-05-07T12:26:49.155Z,2.50
2019-05-07T12:29:18.970Z,2.80
2019-05-07T12:32:13.733Z,3.27
2019-05-07T12:34:47.707Z,3.30
2019-05-07T12:37:17.523Z,3.00
2019-05-07T12:39:47.300Z,2.95
2019-05-07T12:42:17.079Z,2.45
2019-05-07T12:44:46.876Z,2.70
2019-05-07T12:47:16.646Z,2.83
2019-05-07T12:49:46.436Z,3.52
2019-05-07T12:52:34.323Z,3.12
2019-05-07T12:55:19.147Z,2.40
2019-05-07T12:57:48.968Z,3.05
2019-05-07T13:00:36.622Z,2.58
2019-05-07T13:03:21.842Z,2.85
2019-05-07T13:05:52.138Z,2.52
2019-05-07T13:08:22.990Z,3.02
2019-05-07T13:10:53.082Z,2.45
2019-05-07T13:13:23.014Z,2.20
2019-05-07T13:15:52.747Z,2.30
2019-05-07T13:18:22.692Z,2.60
2019-05-07T13:20:52.569Z,2.50
2019-05-07T13:23:22.586Z,2.30
2019-05-07T13:25:52.851Z,2.75
2019-05-07T13:28:22.780Z,2.05
2019-05-07T13:30:53.654Z,2.47
2019-05-07T13:33:24.247Z,1.90
2019-05-07T13:35:55.253Z,3.08
2019-05-07T13:38:37.055Z,1.77
2019-05-07T13:41:34.993Z,2.22
2019-05-07T13:44:26.889Z,1.92
2019-05-07T13:47:14.840Z,2.20
2019-05-07T13:49:45.379Z,2.10
2019-05-07T13:52:16.240Z,2.15
2019-05-07T13:54:47.523Z,2.05
2019-05-07T13:57:17.966Z,2.60
2019-05-07T13:59:48.358Z,2.57
2019-05-07T14:02:18.670Z,2.13
2019-05-07T14:04:48.396Z,1.82
2019-05-07T14:07:18.459Z,2.22
2019-05-07T14:09:48.340Z,1.70
2019-05-07T14:12:18.804Z,1.65
2019-05-07T14:14:49.156Z,2.30
2019-05-07T14:17:19.420Z,1.90
2019-05-07T14:19:49.235Z,2.10
2019-05-07T14:22:19.402Z,2.08
2019-05-07T14:24:49.364Z,2.50
2019-05-07T14:27:19.229Z,2.30
2019-05-07T14:29:51.768Z,1.80
2019-05-07T14:32:46.800Z,1.47
2019-05-07T14:35:44.645Z,1.40
2019-05-07T14:38:36.122Z,1.90
2019-05-07T14:43:41.811Z,2.05
2019-05-07T14:46:12.039Z,2.20
2019-05-07T14:48:43.874Z,2.47
2019-05-07T14:51:13.672Z,2.27
2019-05-07T14:53:43.675Z,1.95
2019-05-07T14:56:14.288Z,2.47
2019-05-07T14:58:44.992Z,2.00
2019-05-07T15:01:15.106Z,1.95
2019-05-07T15:03:44.874Z,1.80
2019-05-07T15:06:15.001Z,2.27
2019-05-07T15:08:44.913Z,2.35
2019-05-07T15:11:15.086Z,2.22
2019-05-07T15:13:45.229Z,2.33
2019-05-07T15:16:16.428Z,2.12
2019-05-07T15:18:54.583Z,1.77
2019-05-07T15:21:25.777Z,2.30
2019-05-07T15:26:26.436Z,1.90
2019-05-07T15:29:02.057Z,1.92
2019-05-07T15:31:51.717Z,1.87
2019-05-07T15:34:22.336Z,2.10
2019-05-07T15:36:54.307Z,2.17
2019-05-07T15:39:26.422Z,2.12
2019-05-07T15:41:58.815Z,2.90
2019-05-07T15:44:30.541Z,1.87
2019-05-07T15:47:05.519Z,2.35
2019-05-07T15:49:37.544Z,2.05
2019-05-07T15:52:15.205Z,2.52
2019-05-07T15:54:47.187Z,2.10
2019-05-07T15:57:23.463Z,2.47
2019-05-07T16:00:05.684Z,2.10
2019-05-07T16:02:40.842Z,2.40
2019-05-07T16:05:12.787Z,2.72
2019-05-07T16:07:46.167Z,2.85
2019-05-07T16:10:18.476Z,2.15
2019-05-07T16:12:52.927Z,1.80
2019-05-07T16:15:25.010Z,2.35
2019-05-07T16:18:03.741Z,2.35
2019-05-07T16:20:36.145Z,1.80
2019-05-07T16:23:14.867Z,2.10
2019-05-07T16:25:42.342Z,1.50
2019-05-07T16:28:15.263Z,1.82
2019-05-07T16:30:47.573Z,1.40
2019-05-07T16:33:20.065Z,1.87
2019-05-07T16:35:53.697Z,1.62
2019-05-07T16:38:26.190Z,1.82
2019-05-07T16:40:58.303Z,1.77
2019-05-07T16:43:30.092Z,1.70
2019-05-07T16:46:02.421Z,2.20
2019-05-07T16:48:35.567Z,6.78
2019-05-07T16:51:08.019Z,4.22
2019-05-07T16:53:42.677Z,3.45
2019-05-07T16:56:15.175Z,2.58
2019-05-07T16:59:01.722Z,2.75
2019-05-07T17:01:34.217Z,2.52
2019-05-07T17:04:06.697Z,2.95
2019-05-07T17:06:39.130Z,2.47
2019-05-07T17:09:15.584Z,2.33
2019-05-07T17:11:49.189Z,1.87
2019-05-07T17:14:21.597Z,2.83
2019-05-07T17:16:53.813Z,2.47
2019-05-07T17:19:26.275Z,2.10
2019-05-07T17:21:59.465Z,2.47
2019-05-07T17:24:32.996Z,2.42
2019-05-07T17:27:05.704Z,2.30
2019-05-07T17:29:38.248Z,2.02
2019-05-07T17:32:12.262Z,2.00
2019-05-07T17:34:44.597Z,2.35
2019-05-07T17:37:18.310Z,2.55
2019-05-07T17:39:52.284Z,2.40
2019-05-07T17:42:24.696Z,2.10
2019-05-07T17:44:59.556Z,2.00
2019-05-07T17:47:32.579Z,2.10
2019-05-07T17:50:06.859Z,2.47
2019-05-07T17:52:39.266Z,2.75
2019-05-07T17:55:13.050Z,2.50
2019-05-07T17:57:45.511Z,2.55
2019-05-07T18:00:21.953Z,2.33
2019-05-07T18:03:13.002Z,2.80
2019-05-07T18:08:17.285Z,2.65
2019-05-07T18:10:49.699Z,2.72
2019-05-07T18:13:24.151Z,2.75
2019-05-07T18:16:00.223Z,3.33
2019-05-07T18:18:32.949Z,2.92
2019-05-07T18:21:05.508Z,2.70
2019-05-07T18:23:37.890Z,2.70
2019-05-07T18:26:20.598Z,2.60
2019-05-07T18:28:47.684Z,2.72
2019-05-07T18:31:22.230Z,2.50
2019-05-07T18:33:59.811Z,2.47
2019-05-07T18:36:32.808Z,2.60
2019-05-07T18:39:08.455Z,2.65
2019-05-07T18:41:43.975Z,3.12
2019-05-07T18:44:16.603Z,2.67
2019-05-07T18:46:49.099Z,3.05
2019-05-07T18:49:21.593Z,3.30
2019-05-07T18:51:54.163Z,3.60
2019-05-07T18:54:31.290Z,3.40
2019-05-07T18:57:03.046Z,3.83
2019-05-07T18:59:36.715Z,2.75
2019-05-07T19:02:09.764Z,2.50
2019-05-07T19:04:43.572Z,2.70
2019-05-07T19:07:16.997Z,3.08
2019-05-07T19:09:49.379Z,2.62
2019-05-07T19:12:25.469Z,2.62
2019-05-07T19:15:02.914Z,3.45
2019-05-07T19:17:35.753Z,4.03
2019-05-07T19:20:08.740Z,3.50
2019-05-07T19:22:51.863Z,3.55
2019-05-07T19:25:24.753Z,3.27
2019-05-07T19:27:57.253Z,2.98
2019-05-07T19:30:32.428Z,3.08
2019-05-07T19:33:04.970Z,2.90
2019-05-07T19:35:38.879Z,2.80
2019-05-07T19:38:12.723Z,2.90
2019-05-07T19:40:48.166Z,3.20
2019-05-07T19:43:20.735Z,2.40
2019-05-07T19:45:53.210Z,2.90
2019-05-07T19:48:25.867Z,2.80
2019-05-07T19:50:58.282Z,2.60
2019-05-07T19:53:32.665Z,3.00
2019-05-07T19:56:23.856Z,2.67
2019-05-07T19:58:56.387Z,2.40
2019-05-07T20:01:39.695Z,2.50
2019-05-07T20:04:15.301Z,2.72
2019-05-07T20:06:47.765Z,2.67
2019-05-07T20:09:22.664Z,2.42
2019-05-07T20:11:56.495Z,2.90
2019-05-07T20:14:28.914Z,3.00
2019-05-07T20:17:01.942Z,2.98
2019-05-07T20:19:35.060Z,2.75
2019-05-07T20:22:07.408Z,3.05
2019-05-07T20:24:41.420Z,2.92
2019-05-07T20:27:13.618Z,3.10
2019-05-07T20:29:46.500Z,3.15
2019-05-07T20:32:18.876Z,3.27
2019-05-07T20:34:52.052Z,4.40
2019-05-07T20:37:24.591Z,3.92
2019-05-07T20:39:57.046Z,4.37
2019-05-07T20:42:32.392Z,3.58
2019-05-07T20:45:04.631Z,3.70
2019-05-07T20:47:36.852Z,3.77
2019-05-07T20:50:09.922Z,3.85
2019-05-07T20:52:42.635Z,4.20
2019-05-07T20:55:30.813Z,3.90
2019-05-07T20:58:03.044Z,3.40
2019-05-07T21:00:35.054Z,4.12
2019-05-07T21:03:23.838Z,3.75
2019-05-07T21:05:58.177Z,3.90
2019-05-07T21:08:31.920Z,3.52
2019-05-07T21:11:03.150Z,4.00
2019-05-07T21:18:34.506Z,4.30
2019-05-07T21:21:04.345Z,4.37
2019-05-07T21:23:34.216Z,4.60
2019-05-07T21:26:04.014Z,4.80
2019-05-07T21:28:33.840Z,4.90
2019-05-07T21:31:03.599Z,5.30
2019-05-07T21:33:33.389Z,5.83
2019-05-07T21:36:03.167Z,6.28
2019-05-07T21:38:33.085Z,5.85
2019-05-07T21:41:02.837Z,5.92
2019-05-07T21:43:32.784Z,7.05
2019-05-07T21:46:02.591Z,6.90
2019-05-07T21:48:32.908Z,7.15
2019-05-07T21:51:02.859Z,6.87
2019-05-07T21:53:37.871Z,7.28
2019-05-07T21:56:15.816Z,6.08
2019-05-07T21:58:54.043Z,6.50
2019-05-07T22:01:28.171Z,5.87
2019-05-07T22:04:01.730Z,6.55
2019-05-07T22:06:30.945Z,6.05
2019-05-07T22:09:02.032Z,5.90
2019-05-07T22:11:32.439Z,6.75
2019-05-07T22:14:02.379Z,8.25
2019-05-07T22:16:32.794Z,7.40
2019-05-07T22:19:02.913Z,7.00
2019-05-07T22:21:34.290Z,6.45
2019-05-07T22:24:04.539Z,7.35
2019-05-07T22:26:34.317Z,6.75
2019-05-07T22:29:04.123Z,7.83
2019-05-07T22:31:43.927Z,7.53
2019-05-07T22:34:26.750Z,7.05
2019-05-07T22:36:56.548Z,8.13
2019-05-07T22:39:26.522Z,7.97
2019-05-07T22:41:56.273Z,7.92
2019-05-07T22:44:26.509Z,8.90
2019-05-07T22:46:58.391Z,8.83
2019-05-07T22:49:28.196Z,8.85
2019-05-07T22:51:58.027Z,7.62
2019-05-07T22:54:27.769Z,8.48
2019-05-07T22:57:05.996Z,8.63
2019-05-07T22:59:35.835Z,7.85
2019-05-07T23:02:05.763Z,7.60
2019-05-07T23:04:35.575Z,7.95
2019-05-07T23:07:05.360Z,7.58
2019-05-07T23:09:35.129Z,7.97
2019-05-07T23:12:05.008Z,8.40
2019-05-07T23:14:34.748Z,7.72
2019-05-07T23:17:04.552Z,8.28
2019-05-07T23:19:34.326Z,8.00
2019-05-07T23:22:04.089Z,8.18
2019-05-07T23:24:33.881Z,8.58
2019-05-07T23:27:03.675Z,8.08
2019-05-07T23:29:33.447Z,7.70
2019-05-07T23:32:03.284Z,8.35
2019-05-07T23:34:33.014Z,7.85
2019-05-07T23:37:02.809Z,8.78
2019-05-07T23:39:34.498Z,8.30
2019-05-07T23:42:15.215Z,8.55
2019-05-07T23:44:45.038Z,9.25
2019-05-07T23:47:14.861Z,9.40
2019-05-07T23:49:44.589Z,9.13
2019-05-07T23:52:14.360Z,9.08
2019-05-07T23:54:44.120Z,9.63
2019-05-07T23:57:15.400Z,9.60
2019-05-07T23:59:45.412Z,9.73
